createdAt,value
2022-12-27T00:01:30.567Z,6.40
2022-12-27T00:06:35.156Z,6.40
2022-12-27T00:11:38.102Z,6.40
2022-12-27T00:16:41.239Z,6.40
2022-12-27T00:21:45.629Z,6.30
2022-12-27T00:26:48.549Z,6.30
2022-12-27T00:31:51.551Z,6.30
2022-12-27T00:36:55.894Z,6.20
2022-12-27T00:41:58.825Z,6.20
2022-12-27T00:47:01.745Z,6.20
2022-12-27T00:52:06.251Z,6.10
2022-12-27T00:57:09.214Z,6.20
2022-12-27T01:02:12.155Z,6.10
2022-12-27T01:07:16.897Z,6.10
2022-12-27T01:12:19.939Z,6.10
2022-12-27T01:17:22.844Z,6.10
2022-12-27T01:22:27.178Z,6.10
2022-12-27T01:27:30.112Z,6.10
2022-12-27T01:32:34.763Z,6.10
2022-12-27T01:37:39.059Z,6.10
2022-12-27T01:42:54.821Z,6.10
2022-12-27T01:48:02.011Z,6.10
2022-12-27T01:53:13.569Z,6.20
2022-12-27T01:58:22.780Z,6.20
2022-12-27T02:03:29.247Z,6.20
2022-12-27T02:08:42.055Z,6.20
2022-12-27T02:13:47.263Z,6.20
2022-12-27T02:18:50.253Z,6.20
2022-12-27T02:24:19.708Z,6.20
2022-12-27T02:29:53.456Z,6.20
2022-12-27T02:35:06.001Z,6.20
2022-12-27T02:40:29.304Z,6.20
2022-12-27T02:45:55.902Z,6.30
2022-12-27T02:51:30.952Z,6.30
2022-12-27T02:57:01.370Z,6.30
2022-12-27T03:02:37.344Z,6.30
2022-12-27T03:07:47.212Z,6.30
2022-12-27T03:13:17.269Z,6.30
2022-12-27T03:18:29.791Z,6.30
2022-12-27T03:23:51.682Z,6.20
2022-12-27T03:29:13.355Z,6.20
2022-12-27T03:34:35.593Z,6.20
2022-12-27T03:39:44.421Z,6.20
2022-12-27T03:44:47.436Z,6.20
2022-12-27T03:49:57.291Z,6.20
2022-12-27T03:55:00.889Z,6.30
2022-12-27T04:00:04.592Z,6.30
2022-12-27T04:05:17.697Z,6.30
2022-12-27T04:10:38.417Z,6.30
2022-12-27T04:15:58.892Z,6.30
2022-12-27T04:21:20.607Z,6.30
2022-12-27T04:26:41.139Z,6.40
2022-12-27T04:32:01.522Z,6.40
2022-12-27T04:37:05.866Z,6.40
2022-12-27T04:42:26.509Z,6.40
2022-12-27T04:47:47.755Z,6.50
2022-12-27T04:53:09.615Z,6.50
2022-12-27T04:58:12.521Z,6.50
2022-12-27T05:03:19.194Z,6.50
2022-12-27T05:08:40.835Z,6.50
2022-12-27T05:14:01.895Z,6.50
2022-12-27T05:19:05.995Z,6.40
2022-12-27T05:24:27.891Z,6.40
2022-12-27T05:29:35.948Z,6.50
2022-12-27T05:34:38.890Z,6.50
2022-12-27T05:39:43.163Z,6.50
2022-12-27T05:44:46.096Z,6.50
2022-12-27T05:49:49.176Z,6.60
2022-12-27T05:54:53.455Z,6.60
2022-12-27T05:59:57.614Z,6.70
2022-12-27T06:05:00.528Z,6.70
2022-12-27T06:10:06.241Z,6.80
2022-12-27T06:15:09.683Z,6.80
2022-12-27T06:20:12.689Z,6.80
2022-12-27T06:25:17.217Z,6.80
2022-12-27T06:30:21.051Z,6.80
2022-12-27T06:35:23.950Z,6.70
2022-12-27T06:40:28.257Z,6.70
2022-12-27T06:45:31.214Z,6.70
2022-12-27T06:50:34.279Z,6.80
2022-12-27T06:55:38.538Z,6.70
2022-12-27T07:00:41.945Z,6.70
2022-12-27T07:05:44.873Z,6.60
2022-12-27T07:10:49.176Z,6.60
2022-12-27T07:15:52.098Z,6.60
2022-12-27T07:20:55.046Z,6.60
2022-12-27T07:26:03.343Z,6.50
2022-12-27T07:31:09.010Z,6.50
2022-12-27T07:36:16.122Z,6.50
2022-12-27T07:41:20.813Z,6.40
2022-12-27T07:46:25.717Z,6.40
2022-12-27T07:51:29.480Z,6.30
2022-12-27T07:56:33.872Z,6.30
2022-12-27T08:01:57.146Z,6.30
2022-12-27T08:07:05.484Z,6.30
2022-12-27T08:12:10.551Z,6.30
2022-12-27T08:17:20.196Z,6.30
2022-12-27T08:22:24.405Z,6.40
2022-12-27T08:27:28.670Z,6.40
2022-12-27T08:32:31.651Z,6.40
2022-12-27T08:37:34.701Z,6.50
2022-12-27T08:42:38.948Z,6.60
2022-12-27T08:47:41.846Z,6.70
2022-12-27T08:52:44.804Z,6.70
2022-12-27T08:57:49.041Z,6.70
2022-12-27T09:02:52.034Z,6.70
2022-12-27T09:07:55.483Z,6.80
2022-12-27T09:12:59.801Z,6.80
2022-12-27T09:18:03.163Z,6.80
2022-12-27T09:23:06.362Z,6.90
2022-12-27T09:28:10.639Z,7.00
2022-12-27T09:33:13.535Z,7.00
2022-12-27T09:38:16.451Z,7.10
2022-12-27T09:43:27.780Z,7.20
2022-12-27T09:48:34.731Z,7.20
2022-12-27T09:53:45.209Z,7.30
2022-12-27T09:58:52.016Z,7.30
2022-12-27T10:03:55.576Z,7.40
2022-12-27T10:09:03.029Z,7.50
2022-12-27T10:14:20.933Z,7.50
2022-12-27T10:19:36.758Z,7.60
2022-12-27T10:24:43.048Z,7.60
2022-12-27T10:29:48.512Z,7.70
2022-12-27T10:34:56.461Z,7.70
2022-12-27T10:40:08.447Z,7.90
2022-12-27T10:45:32.243Z,7.90
2022-12-27T10:50:35.214Z,8.00
2022-12-27T10:55:39.951Z,8.10
2022-12-27T11:00:54.509Z,8.10
2022-12-27T11:06:02.253Z,8.10
2022-12-27T11:11:16.521Z,8.10
2022-12-27T11:16:28.802Z,8.20
2022-12-27T11:21:32.486Z,8.20
2022-12-27T11:26:46.465Z,8.30
2022-12-27T11:31:55.644Z,8.30
2022-12-27T11:37:07.241Z,8.30
2022-12-27T11:42:19.312Z,8.30
2022-12-27T11:47:33.004Z,8.40
2022-12-27T11:53:00.964Z,8.50
2022-12-27T11:58:27.643Z,8.50
2022-12-27T12:03:57.777Z,8.60
2022-12-27T12:09:17.586Z,8.60
2022-12-27T12:14:47.312Z,8.70
2022-12-27T12:20:12.681Z,8.70
2022-12-27T12:25:49.059Z,8.80
2022-12-27T12:31:05.415Z,8.80
2022-12-27T12:36:25.107Z,8.80
2022-12-27T12:41:49.047Z,8.80
2022-12-27T12:47:02.192Z,8.80
2022-12-27T12:52:18.823Z,8.90
2022-12-27T12:57:36.768Z,8.90
2022-12-27T13:03:04.062Z,8.90
2022-12-27T13:08:14.075Z,8.90
2022-12-27T13:13:25.587Z,8.80
2022-12-27T13:18:36.753Z,8.80
2022-12-27T13:23:51.667Z,8.90
2022-12-27T13:29:09.160Z,8.90
2022-12-27T13:34:25.929Z,8.90
2022-12-27T13:39:43.473Z,8.90
2022-12-27T13:44:55.198Z,8.80
2022-12-27T13:50:40.181Z,8.80
2022-12-27T13:55:55.532Z,8.80
2022-12-27T14:01:07.601Z,8.90
2022-12-27T14:06:36.555Z,9.00
2022-12-27T14:11:55.373Z,9.00
2022-12-27T14:17:19.339Z,9.10
2022-12-27T14:22:46.505Z,9.20
2022-12-27T14:28:42.440Z,9.30
2022-12-27T14:34:16.607Z,9.40
2022-12-27T14:39:51.030Z,9.40
2022-12-27T14:45:33.893Z,9.50
2022-12-27T14:51:32.679Z,9.40
2022-12-27T14:56:36.221Z,9.40
2022-12-27T15:01:51.424Z,9.40
2022-12-27T15:07:22.557Z,9.30
2022-12-27T15:12:35.784Z,9.20
2022-12-27T15:17:55.912Z,9.20
2022-12-27T15:23:14.355Z,9.10
2022-12-27T15:28:26.005Z,9.00
2022-12-27T15:33:38.055Z,9.00
2022-12-27T15:38:53.542Z,8.80
2022-12-27T15:44:36.624Z,8.80
2022-12-27T15:49:56.191Z,8.70
2022-12-27T15:55:17.450Z,8.60
2022-12-27T16:00:33.306Z,8.50
2022-12-27T16:05:47.261Z,8.40
2022-12-27T16:10:53.486Z,8.30
2022-12-27T16:15:57.355Z,8.20
2022-12-27T16:21:02.894Z,8.10
2022-12-27T16:26:10.408Z,8.00
2022-12-27T16:31:13.766Z,8.00
2022-12-27T16:36:23.229Z,7.90
2022-12-27T16:41:43.300Z,7.80
2022-12-27T16:47:10.733Z,7.80
2022-12-27T16:52:44.678Z,7.70
2022-12-27T16:57:50.212Z,7.70
2022-12-27T17:02:53.239Z,7.70
2022-12-27T17:08:20.084Z,7.70
2022-12-27T17:13:34.184Z,7.60
2022-12-27T17:18:44.638Z,7.60
2022-12-27T17:23:48.961Z,7.70
2022-12-27T17:29:02.390Z,7.60
2022-12-27T17:34:15.824Z,7.60
2022-12-27T17:39:38.545Z,7.60
2022-12-27T17:45:00.156Z,7.60
2022-12-27T17:50:05.439Z,7.60
2022-12-27T17:55:35.101Z,7.50
2022-12-27T18:00:45.386Z,7.50
2022-12-27T18:05:49.671Z,7.50
2022-12-27T18:10:53.193Z,7.50
2022-12-27T18:15:59.002Z,7.50
2022-12-27T18:21:04.241Z,7.50
2022-12-27T18:26:13.316Z,7.40
2022-12-27T18:31:25.186Z,7.50
2022-12-27T18:36:32.196Z,7.40
2022-12-27T18:41:38.276Z,7.40
2022-12-27T18:46:42.738Z,7.40
2022-12-27T18:51:45.709Z,7.40
2022-12-27T18:56:52.360Z,7.30
2022-12-27T19:01:58.347Z,7.30
2022-12-27T19:07:11.383Z,7.30
2022-12-27T19:12:24.692Z,7.30
2022-12-27T19:17:31.399Z,7.30
2022-12-27T19:22:41.274Z,7.30
2022-12-27T19:28:00.983Z,7.30
2022-12-27T19:33:09.716Z,7.30
2022-12-27T19:38:21.263Z,7.30
2022-12-27T19:43:25.923Z,7.30
2022-12-27T19:48:30.210Z,7.30
2022-12-27T19:53:35.632Z,7.20
2022-12-27T19:58:38.996Z,7.20
2022-12-27T20:03:43.264Z,7.20
2022-12-27T20:08:48.872Z,7.20
2022-12-27T20:13:52.056Z,7.10
2022-12-27T20:18:56.557Z,7.10
2022-12-27T20:23:59.424Z,7.00
2022-12-27T20:29:02.513Z,7.00
2022-12-27T20:34:06.780Z,6.90
2022-12-27T20:39:09.846Z,6.90
2022-12-27T20:44:14.235Z,6.90
2022-12-27T20:49:18.512Z,6.80
2022-12-27T20:54:21.459Z,6.80
2022-12-27T20:59:24.360Z,6.70
2022-12-27T21:04:28.731Z,6.70
2022-12-27T21:09:31.970Z,6.70
2022-12-27T21:14:34.918Z,6.60
2022-12-27T21:19:39.168Z,6.60
2022-12-27T21:24:42.080Z,6.60
2022-12-27T21:29:44.991Z,6.60
2022-12-27T21:34:49.419Z,6.60
2022-12-27T21:39:52.314Z,6.60
2022-12-27T21:44:55.205Z,6.60
2022-12-27T21:49:59.561Z,6.70
2022-12-27T21:55:02.592Z,6.70
2022-12-27T22:00:06.794Z,6.70
2022-12-27T22:05:11.251Z,6.70
2022-12-27T22:10:14.263Z,6.70
2022-12-27T22:15:17.421Z,6.70
2022-12-27T22:20:21.777Z,6.70
2022-12-27T22:25:24.677Z,6.70
2022-12-27T22:30:27.744Z,6.80
2022-12-27T22:35:32.561Z,6.80
2022-12-27T22:40:45.441Z,6.70
2022-12-27T22:45:53.748Z,6.70
2022-12-27T22:50:58.343Z,6.70
2022-12-27T22:56:01.245Z,6.70
2022-12-27T23:01:10.753Z,6.70
2022-12-27T23:06:15.503Z,6.70
2022-12-27T23:11:20.569Z,6.80
2022-12-27T23:16:23.903Z,6.80
2022-12-27T23:21:28.203Z,6.80
2022-12-27T23:26:31.146Z,6.80
2022-12-27T23:31:35.084Z,6.80
2022-12-27T23:36:39.738Z,6.80
2022-12-27T23:41:42.653Z,6.90
2022-12-27T23:46:45.603Z,6.80
2022-12-27T23:51:51.711Z,6.90
2022-12-27T23:56:55.736Z,6.90
